Time;durP1;ratioP1;P1;durP2;ratioP2;P2;SDS_P1;SDS_P2;PMS_P1;PMS_P2;Temp;Humidity;BMP_temperature;BMP_pressure;BME280_temperature;BME280_humidity;BME280_pressure;Samples;Min_cycle;Max_cycle;Signal;HPM_P1;HPM_P2
2024/01/23 00:00:49;;;;;;;6.88;3.50;;;;;;;4.11;50.86;99264.03;5086340;28;20032;-69
2024/01/23 00:03:17;;;;;;;6.68;3.13;;;;;;;4.16;51.13;99279.19;5064353;28;20036;-69
2024/01/23 00:05:42;;;;;;;7.65;3.88;;;;;;;4.22;50.56;99312.34;5054856;28;20117;-69
2024/01/23 00:08:10;;;;;;;7.95;3.95;;;;;;;4.10;50.78;99307.88;5060349;28;20523;-70
2024/01/23 00:10:35;;;;;;;8.77;3.50;;;;;;;4.13;50.35;99336.84;5062591;28;20041;-69
2024/01/23 00:13:01;;;;;;;5.85;3.15;;;;;;;4.12;49.49;99335.16;5054074;28;20043;-70
2024/01/23 00:15:26;;;;;;;7.15;3.15;;;;;;;4.31;47.71;99336.69;5063794;28;20128;-70
2024/01/23 00:17:52;;;;;;;8.35;3.53;;;;;;;4.36;47.31;99327.81;5072923;28;20118;-68
2024/01/23 00:20:17;;;;;;;7.25;3.15;;;;;;;4.34;47.51;99309.03;5068308;28;20112;-68
2024/01/23 00:22:43;;;;;;;6.18;3.10;;;;;;;4.33;49.01;99296.28;5062778;28;20074;-68
2024/01/23 00:25:08;;;;;;;7.15;3.65;;;;;;;4.31;50.71;99308.38;5062618;28;20027;-69
2024/01/23 00:27:36;;;;;;;7.10;3.67;;;;;;;4.32;50.64;99303.16;5065638;28;20471;-68
2024/01/23 00:30:02;;;;;;;6.30;3.42;;;;;;;4.20;51.15;99312.41;5054176;28;20158;-68
2024/01/23 00:32:30;;;;;;;7.30;3.63;;;;;;;4.03;50.13;99299.66;5053660;28;20039;-69
2024/01/23 00:34:57;;;;;;;8.18;3.67;;;;;;;3.97;51.28;99300.81;5071516;28;20023;-69
2024/01/23 00:37:22;;;;;;;6.70;3.97;;;;;;;3.92;52.53;99312.28;5067386;28;20032;-69
2024/01/23 00:39:48;;;;;;;8.77;3.60;;;;;;;3.88;52.88;99308.25;5071013;27;20090;-70
2024/01/23 00:42:13;;;;;;;7.82;3.92;;;;;;;3.83;54.11;99300.75;5069085;28;20028;-68
2024/01/23 00:44:41;;;;;;;7.40;3.42;;;;;;;3.93;55.34;99319.94;5060550;28;20043;-68
2024/01/23 00:47:09;;;;;;;7.00;3.13;;;;;;;4.02;54.73;99316.03;5061838;28;20115;-68
2024/01/23 00:49:34;;;;;;;7.28;3.30;;;;;;;3.64;51.11;99246.94;5086959;27;20628;-69
2024/01/23 00:52:01;;;;;;;6.68;3.08;;;;;;;4.09;52.35;99316.50;5052711;28;20032;-69
2024/01/23 00:54:27;;;;;;;6.85;2.85;;;;;;;4.31;48.91;99323.81;5051045;28;20036;-69
2024/01/23 00:56:52;;;;;;;7.32;3.00;;;;;;;4.31;54.75;99323.81;5053184;28;20051;-69
2024/01/23 00:59:20;;;;;;;7.57;3.78;;;;;;;4.14;56.31;99314.50;5055542;28;20398;-69
2024/01/23 01:01:45;;;;;;;5.68;2.55;;;;;;;4.11;57.62;99314.69;5066278;27;20036;-69
2024/01/23 01:04:11;;;;;;;7.85;3.90;;;;;;;4.08;59.62;99315.66;5062893;28;20027;-69
2024/01/23 01:06:36;;;;;;;6.53;3.05;;;;;;;4.01;60.38;99319.50;5055768;28;20092;-68
2024/01/23 01:09:02;;;;;;;7.03;3.20;;;;;;;3.42;57.72;99232.69;5057771;27;20020;-69
2024/01/23 01:11:30;;;;;;;6.32;2.88;;;;;;;3.51;56.45;99285.38;5059490;28;20044;-69
2024/01/23 01:13:55;;;;;;;5.93;3.10;;;;;;;3.52;55.48;99301.63;5047654;28;20051;-68
2024/01/23 01:16:21;;;;;;;6.32;2.90;;;;;;;3.50;55.81;99291.41;5083247;28;20062;-69
2024/01/23 01:18:49;;;;;;;7.20;3.13;;;;;;;3.43;55.30;99283.22;5067365;27;20064;-69
2024/01/23 01:21:17;;;;;;;6.03;3.15;;;;;;;3.43;55.01;99287.50;5064809;28;20069;-69
2024/01/23 01:23:43;;;;;;;8.10;3.28;;;;;;;3.46;55.57;99303.59;5051383;28;20035;-69
2024/01/23 01:26:08;;;;;;;6.30;2.78;;;;;;;3.51;54.13;99316.22;5068468;28;20588;-69
2024/01/23 01:28:39;;;;;;;7.55;3.38;;;;;;;3.51;54.53;99317.97;5065850;28;20092;-69
2024/01/23 01:31:04;;;;;;;6.00;3.00;;;;;;;3.46;55.64;99320.78;5061902;27;20291;-69
2024/01/23 01:33:29;;;;;;;7.32;3.35;;;;;;;3.40;55.82;99319.38;5071635;28;20024;-70
2024/01/23 01:35:55;;;;;;;6.38;3.00;;;;;;;3.42;56.75;99311.59;5052843;28;20040;-70
2024/01/23 01:38:20;;;;;;;6.53;3.15;;;;;;;3.41;57.77;99297.91;5055521;28;20329;-69
2024/01/23 01:40:48;;;;;;;7.00;3.40;;;;;;;3.43;58.26;99296.09;5052964;28;20495;-69
2024/01/23 01:43:25;;;;;;;5.63;2.47;;;;;;;3.40;58.96;99293.66;5054148;27;20034;-68
2024/01/23 01:46:13;;;;;;;7.43;3.42;;;;;;;3.26;60.38;99302.09;5053202;27;20038;-68
2024/01/23 01:48:41;;;;;;;6.63;3.33;;;;;;;3.11;60.90;99284.13;5083651;27;20023;-69
2024/01/23 01:51:07;;;;;;;6.10;3.50;;;;;;;2.74;61.00;99211.53;5060184;28;20032;-70
2024/01/23 01:53:36;;;;;;;6.57;3.40;;;;;;;3.14;61.44;99282.22;5056868;28;20966;-70
2024/01/23 01:56:06;;;;;;;6.35;3.17;;;;;;;3.21;60.72;99278.41;5074510;28;20070;-68
2024/01/23 01:58:32;;;;;;;8.48;3.95;;;;;;;3.22;59.28;99274.91;5069333;28;20688;-70
2024/01/23 02:00:59;;;;;;;5.50;2.60;;;;;;;3.22;58.60;99264.63;5050671;27;20041;-68
2024/01/23 02:03:26;;;;;;;6.13;3.25;;;;;;;2.48;57.16;99158.09;5061098;28;20771;-70
2024/01/23 02:05:52;;;;;;;7.88;3.15;;;;;;;3.31;55.73;99267.63;5051161;28;20035;-70
2024/01/23 02:08:19;;;;;;;6.38;3.05;;;;;;;2.88;54.76;99207.34;5055614;28;20035;-68
2024/01/23 02:10:45;;;;;;;7.18;2.53;;;;;;;3.25;52.60;99256.75;5054515;28;20042;-68
2024/01/23 02:13:13;;;;;;;5.68;2.25;;;;;;;3.25;51.99;99266.22;5052092;28;20772;-69
2024/01/23 02:15:40;;;;;;;6.25;2.45;;;;;;;3.27;51.74;99265.22;5086602;27;20073;-69
2024/01/23 02:18:06;;;;;;;4.65;1.83;;;;;;;3.32;50.86;99269.28;5075156;28;20101;-70
2024/01/23 02:20:31;;;;;;;5.78;2.50;;;;;;;3.32;51.69;99282.94;5068430;28;20039;-68
2024/01/23 02:22:58;;;;;;;6.30;2.38;;;;;;;3.27;52.95;99285.78;5052806;28;20032;-69
2024/01/23 02:25:23;;;;;;;6.28;2.50;;;;;;;3.27;52.45;99272.94;5076589;28;20040;-69
2024/01/23 02:27:48;;;;;;;5.68;2.05;;;;;;;3.20;52.80;99255.34;5068455;28;20043;-68
2024/01/23 02:30:14;;;;;;;6.47;2.40;;;;;;;3.22;54.54;99256.91;5049970;28;20032;-69
2024/01/23 02:32:45;;;;;;;5.18;2.10;;;;;;;3.30;54.67;99245.41;5057336;28;20028;-68
2024/01/23 02:35:13;;;;;;;5.15;1.88;;;;;;;3.11;55.56;99238.69;5089003;27;20113;-69
2024/01/23 02:37:39;;;;;;;4.53;1.77;;;;;;;3.10;55.86;99243.91;5057602;28;20111;-68
2024/01/23 02:40:07;;;;;;;4.72;2.00;;;;;;;3.13;56.02;99257.41;5056298;28;20720;-69
2024/01/23 02:42:32;;;;;;;6.40;2.72;;;;;;;3.12;56.25;99234.34;5054399;28;20113;-69
2024/01/23 02:44:58;;;;;;;5.25;2.45;;;;;;;2.93;58.12;99225.06;5055350;28;20035;-69
2024/01/23 02:47:26;;;;;;;5.75;2.53;;;;;;;3.22;59.29;99238.94;5055854;28;20792;-69
2024/01/23 02:49:54;;;;;;;5.13;2.30;;;;;;;3.08;57.63;99231.97;5048379;27;20157;-69
2024/01/23 02:52:22;;;;;;;5.15;2.15;;;;;;;3.15;57.36;99236.78;5050153;28;20035;-69
2024/01/23 02:54:47;;;;;;;5.43;2.05;;;;;;;3.21;58.49;99219.28;5070125;27;20032;-70
2024/01/23 02:57:13;;;;;;;6.65;2.60;;;;;;;3.32;57.73;99228.16;5071023;28;20039;-69
2024/01/23 02:59:42;;;;;;;6.55;2.22;;;;;;;3.39;59.46;99191.72;5066301;28;20024;-69
2024/01/23 03:02:10;;;;;;;5.40;2.22;;;;;;;3.46;61.47;99243.66;5085387;27;20023;-69
2024/01/23 03:04:38;;;;;;;5.80;2.65;;;;;;;2.94;60.65;99165.09;5054213;28;20084;-68
2024/01/23 03:07:03;;;;;;;5.53;2.55;;;;;;;3.43;60.63;99260.09;5057154;28;20111;-68
2024/01/23 03:09:29;;;;;;;6.60;2.78;;;;;;;3.54;60.25;99254.34;5057201;28;20028;-69
2024/01/23 03:11:54;;;;;;;6.90;2.63;;;;;;;3.39;60.59;99257.75;5060306;28;20036;-69
2024/01/23 03:14:19;;;;;;;6.47;2.90;;;;;;;2.88;58.81;99193.66;5053674;28;20120;-68
2024/01/23 03:16:47;;;;;;;6.13;3.13;;;;;;;3.43;57.24;99269.50;5054275;28;20077;-71
2024/01/23 03:19:12;;;;;;;5.50;2.67;;;;;;;3.49;57.57;99251.19;5083274;27;20024;-69
2024/01/23 03:21:40;;;;;;;6.75;2.90;;;;;;;3.54;57.92;99261.22;5049044;28;20038;-70
2024/01/23 03:24:08;;;;;;;5.47;2.47;;;;;;;3.51;59.64;99258.84;5052997;27;20115;-71
2024/01/23 03:26:33;;;;;;;6.68;3.03;;;;;;;3.54;59.96;99262.06;5058183;28;20032;-67
2024/01/23 03:28:58;;;;;;;6.22;2.78;;;;;;;3.60;59.46;99255.75;5051331;28;20043;-67
2024/01/23 03:31:24;;;;;;;6.43;3.13;;;;;;;3.61;61.42;99249.69;5070183;28;20106;-68
2024/01/23 03:33:52;;;;;;;5.05;2.58;;;;;;;3.59;64.35;99256.66;5048868;28;20096;-69
2024/01/23 03:36:18;;;;;;;5.80;2.75;;;;;;;3.16;63.31;99193.00;5049990;28;20110;-69
2024/01/23 03:38:43;;;;;;;5.53;2.50;;;;;;;3.51;61.88;99264.81;5069746;28;20037;-69
2024/01/23 03:41:13;;;;;;;6.10;2.97;;;;;;;3.43;61.38;99270.38;5056162;28;20031;-69
2024/01/23 03:43:39;;;;;;;6.40;2.75;;;;;;;3.45;62.20;99252.28;5059904;28;20024;-69
2024/01/23 03:46:04;;;;;;;7.03;2.80;;;;;;;3.39;62.38;99238.00;5056699;28;20042;-69
2024/01/23 03:48:32;;;;;;;5.80;2.80;;;;;;;3.12;62.04;99195.81;5064755;28;20161;-69
2024/01/23 03:50:57;;;;;;;6.18;3.08;;;;;;;3.35;61.74;99258.84;5058571;28;20582;-69
2024/01/23 03:53:25;;;;;;;6.00;2.58;;;;;;;3.29;60.79;99249.72;5067029;28;20138;-69
2024/01/23 03:55:50;;;;;;;7.10;2.60;;;;;;;3.36;59.08;99265.63;5056601;28;20736;-70
2024/01/23 03:58:18;;;;;;;6.30;2.55;;;;;;;3.37;56.84;99265.53;5068766;28;20032;-70
2024/01/23 04:00:43;;;;;;;4.88;2.13;;;;;;;3.54;53.09;99262.06;5048691;28;21161;-70
2024/01/23 04:03:11;;;;;;;5.22;2.20;;;;;;;3.61;51.62;99258.25;5052644;28;20034;-70
2024/01/23 04:05:36;;;;;;;6.50;2.30;;;;;;;3.73;52.44;99282.44;5050106;28;20036;-68
2024/01/23 04:08:02;;;;;;;6.10;2.72;;;;;;;3.87;49.92;99273.13;5056309;28;20031;-68
2024/01/23 04:10:27;;;;;;;5.70;2.30;;;;;;;3.84;51.57;99269.00;5091240;28;20112;-69
2024/01/23 04:12:55;;;;;;;4.85;2.22;;;;;;;3.89;50.52;99279.84;5068935;28;20036;-69
2024/01/23 04:15:20;;;;;;;5.57;2.40;;;;;;;3.94;51.29;99275.28;5060634;28;20080;-69
2024/01/23 04:17:46;;;;;;;6.90;2.40;;;;;;;3.52;52.77;99225.31;5086695;28;20031;-69
2024/01/23 04:20:11;;;;;;;4.95;2.28;;;;;;;3.93;53.15;99294.22;5049168;28;20154;-70
2024/01/23 04:22:39;;;;;;;4.70;2.20;;;;;;;3.63;57.29;99255.56;5067013;28;20031;-68
2024/01/23 04:25:05;;;;;;;4.90;2.03;;;;;;;3.93;55.47;99293.38;5059897;28;20043;-70
2024/01/23 04:27:30;;;;;;;5.47;2.30;;;;;;;3.83;58.06;99288.75;5062962;28;20058;-68
2024/01/23 04:29:58;;;;;;;5.00;2.30;;;;;;;3.71;59.48;99297.13;5071017;28;20032;-69
2024/01/23 04:32:24;;;;;;;5.13;2.40;;;;;;;3.74;61.68;99293.56;5061537;28;20038;-69
2024/01/23 04:34:49;;;;;;;5.90;2.60;;;;;;;3.69;62.35;99290.41;5066957;28;20036;-68
2024/01/23 04:37:17;;;;;;;6.95;2.53;;;;;;;3.51;63.87;99281.97;5053142;28;20043;-69
2024/01/23 04:39:44;;;;;;;4.97;2.20;;;;;;;3.53;62.36;99293.00;5061815;28;20123;-70
2024/01/23 04:42:10;;;;;;;4.45;1.73;;;;;;;3.47;59.26;99284.72;5064034;28;20598;-70
2024/01/23 04:44:40;;;;;;;4.90;2.03;;;;;;;3.55;56.62;99309.19;5058612;28;20060;-69
2024/01/23 04:47:08;;;;;;;6.68;2.72;;;;;;;3.48;56.82;99308.66;5064860;28;20085;-69
2024/01/23 04:49:33;;;;;;;5.18;2.30;;;;;;;3.41;57.49;99294.47;5065116;28;20050;-71
2024/01/23 04:51:58;;;;;;;6.65;2.13;;;;;;;3.30;57.14;99305.34;5072845;28;20106;-70
2024/01/23 04:54:26;;;;;;;6.15;2.30;;;;;;;3.33;57.18;99305.19;5060920;28;20031;-69
2024/01/23 04:56:52;;;;;;;5.68;2.38;;;;;;;3.43;56.99;99326.06;5058288;28;20072;-70
2024/01/23 04:59:19;;;;;;;4.97;2.05;;;;;;;3.44;56.05;99313.16;5053017;28;20840;-68
2024/01/23 05:01:45;;;;;;;4.93;1.90;;;;;;;3.49;56.04;99330.91;5064113;28;20028;-69
2024/01/23 05:04:10;;;;;;;4.00;1.55;;;;;;;3.48;58.50;99339.53;5054037;28;20024;-69
2024/01/23 05:06:40;;;;;;;4.32;1.90;;;;;;;3.46;59.37;99337.03;5060044;28;20038;-69
2024/01/23 05:09:06;;;;;;;4.22;1.75;;;;;;;3.37;60.41;99326.41;5059782;28;20020;-69
2024/01/23 05:11:31;;;;;;;4.50;1.90;;;;;;;3.35;61.08;99334.22;5079618;28;20051;-69
2024/01/23 05:13:57;;;;;;;4.72;1.98;;;;;;;3.03;61.50;99277.63;5058474;28;20028;-69
2024/01/23 05:16:24;;;;;;;4.72;1.60;;;;;;;3.51;61.33;99344.50;5048309;28;20375;-69
2024/01/23 05:18:50;;;;;;;5.32;1.98;;;;;;;3.52;62.07;99345.34;5056791;28;20054;-68
2024/01/23 05:21:18;;;;;;;5.85;2.67;;;;;;;3.54;61.43;99340.94;5053495;28;20545;-68
2024/01/23 05:23:44;;;;;;;5.47;2.30;;;;;;;3.46;61.55;99346.50;5064219;28;20505;-68
2024/01/23 05:26:09;;;;;;;4.50;1.77;;;;;;;3.52;60.83;99346.16;5057641;28;20075;-68
2024/01/23 05:28:35;;;;;;;4.85;2.00;;;;;;;3.53;61.49;99344.44;5052936;28;20039;-69
2024/01/23 05:31:03;;;;;;;5.40;2.15;;;;;;;3.36;61.05;99347.88;5055511;28;20024;-69
2024/01/23 05:33:30;;;;;;;7.40;2.28;;;;;;;3.36;60.89;99348.72;5082517;28;20123;-70
2024/01/23 05:35:56;;;;;;;4.53;1.75;;;;;;;3.39;59.85;99332.31;5056529;28;20028;-70
2024/01/23 05:38:24;;;;;;;4.72;2.13;;;;;;;3.54;60.21;99353.78;5070997;28;20124;-69
2024/01/23 05:40:49;;;;;;;4.20;1.50;;;;;;;3.06;59.70;99272.31;5052274;27;20035;-69
2024/01/23 05:43:14;;;;;;;4.95;2.10;;;;;;;3.58;60.17;99350.16;5073348;28;20142;-69
2024/01/23 05:45:40;;;;;;;5.53;1.85;;;;;;;3.54;62.17;99351.22;5067775;28;20042;-70
2024/01/23 05:48:06;;;;;;;4.80;1.88;;;;;;;3.52;62.20;99353.06;5072267;28;20039;-69
2024/01/23 05:50:33;;;;;;;4.97;2.10;;;;;;;3.54;60.63;99357.22;5065187;28;20039;-70
2024/01/23 05:52:59;;;;;;;4.95;2.10;;;;;;;3.60;60.09;99366.34;5038777;28;20049;-68
2024/01/23 05:55:24;;;;;;;4.45;1.85;;;;;;;3.56;61.80;99362.25;5047572;28;20105;-69
2024/01/23 05:57:50;;;;;;;4.13;1.83;;;;;;;3.60;64.65;99377.44;5047441;28;20036;-68
2024/01/23 06:00:18;;;;;;;4.97;1.92;;;;;;;3.65;64.73;99383.19;5033553;28;20027;-69
2024/01/23 06:02:43;;;;;;;5.75;2.10;;;;;;;3.40;65.45;99347.66;5043034;28;20040;-69
2024/01/23 06:05:09;;;;;;;4.13;1.40;;;;;;;3.59;66.48;99388.63;5040711;28;20032;-69
2024/01/23 06:07:40;;;;;;;5.80;2.15;;;;;;;3.63;68.00;99395.31;5028520;28;20029;-68
2024/01/23 06:10:05;;;;;;;5.30;2.40;;;;;;;3.65;68.01;99390.03;5044851;28;20710;-69
2024/01/23 06:12:31;;;;;;;5.18;2.20;;;;;;;3.27;66.52;99326.09;5064846;28;20028;-70
2024/01/23 06:14:59;;;;;;;5.18;2.22;;;;;;;3.60;66.53;99392.88;5037716;28;20059;-70
2024/01/23 06:17:24;;;;;;;4.13;1.83;;;;;;;3.66;67.06;99415.69;5063515;28;20039;-68
2024/01/23 06:19:49;;;;;;;5.28;2.35;;;;;;;3.68;66.66;99407.06;5035996;28;20692;-70
2024/01/23 06:22:15;;;;;;;5.55;2.22;;;;;;;3.78;66.10;99408.25;5043764;28;20036;-69
2024/01/23 06:24:42;;;;;;;5.53;2.38;;;;;;;3.85;65.81;99410.41;5046842;28;20066;-70
2024/01/23 06:27:10;;;;;;;6.85;2.60;;;;;;;3.99;65.83;99419.13;5041930;28;20837;-69
2024/01/23 06:29:36;;;;;;;7.30;2.67;;;;;;;3.92;66.72;99397.22;5043313;28;20025;-68
2024/01/23 06:32:02;;;;;;;6.78;2.95;;;;;;;3.90;66.62;99422.19;5041919;28;20451;-70
2024/01/23 06:34:30;;;;;;;6.05;2.90;;;;;;;3.90;67.36;99430.72;5044949;28;20040;-68
2024/01/23 06:36:55;;;;;;;5.57;2.92;;;;;;;3.52;66.99;99376.19;5029602;28;20039;-68
2024/01/23 06:39:25;;;;;;;6.65;2.80;;;;;;;3.84;65.21;99437.03;5031207;28;20471;-68
2024/01/23 06:41:51;;;;;;;6.63;2.30;;;;;;;3.77;65.61;99420.28;5032307;28;20733;-69
2024/01/23 06:44:16;;;;;;;5.90;2.67;;;;;;;3.75;65.73;99441.84;5039761;28;20032;-69
2024/01/23 06:46:44;;;;;;;6.82;2.72;;;;;;;3.78;66.50;99442.53;5031667;28;20108;-70
2024/01/23 06:49:10;;;;;;;5.70;2.80;;;;;;;3.52;67.16;99417.34;5049131;28;20028;-69
2024/01/23 06:51:38;;;;;;;6.93;2.90;;;;;;;3.64;67.40;99439.84;5031417;28;20685;-70
2024/01/23 06:54:07;;;;;;;6.07;2.80;;;;;;;3.74;67.79;99446.19;5084358;27;20150;-68
2024/01/23 06:56:33;;;;;;;6.18;2.88;;;;;;;3.70;69.81;99438.69;5057891;28;20047;-69
2024/01/23 06:59:02;;;;;;;6.22;3.00;;;;;;;3.79;68.63;99458.78;5063338;28;20036;-69
2024/01/23 07:01:27;;;;;;;5.97;3.13;;;;;;;3.78;68.63;99446.84;5072066;28;20054;-68
2024/01/23 07:03:53;;;;;;;7.25;2.90;;;;;;;3.93;68.97;99463.22;5048560;28;21331;-69
2024/01/23 07:06:18;;;;;;;6.60;3.10;;;;;;;3.92;68.99;99467.50;5063583;28;20054;-69
2024/01/23 07:08:44;;;;;;;6.75;2.80;;;;;;;3.91;68.27;99454.75;5053369;28;20024;-69
2024/01/23 07:11:09;;;;;;;5.70;3.08;;;;;;;3.95;68.45;99462.22;5065531;28;20426;-68
2024/01/23 07:13:34;;;;;;;7.30;2.60;;;;;;;3.88;68.35;99454.91;5068362;27;20028;-68
2024/01/23 07:16:00;;;;;;;6.10;2.70;;;;;;;3.93;67.58;99452.91;5071616;28;20474;-69
2024/01/23 07:18:25;;;;;;;5.72;2.50;;;;;;;4.03;66.89;99454.91;5072096;28;20058;-68
2024/01/23 07:20:51;;;;;;;5.20;2.00;;;;;;;4.27;64.36;99451.94;5062548;28;20382;-69
2024/01/23 07:23:19;;;;;;;5.22;2.50;;;;;;;4.62;62.46;99451.72;5060313;28;20031;-69
2024/01/23 07:25:44;;;;;;;4.05;1.65;;;;;;;4.57;61.28;99425.38;5047261;28;20032;-68
2024/01/23 07:28:09;;;;;;;4.88;2.15;;;;;;;5.03;61.37;99448.50;5053839;27;20039;-71
2024/01/23 07:30:37;;;;;;;5.88;2.42;;;;;;;4.75;63.92;99444.94;5065890;28;20054;-70
2024/01/23 07:33:03;;;;;;;6.10;2.50;;;;;;;4.29;64.02;99456.97;5088741;27;20099;-68
2024/01/23 07:35:28;;;;;;;6.25;2.22;;;;;;;4.07;64.50;99437.56;5050351;28;20040;-69
2024/01/23 07:37:58;;;;;;;5.78;2.60;;;;;;;4.02;64.98;99427.50;5064622;28;20032;-70
2024/01/23 07:40:24;;;;;;;7.75;2.13;;;;;;;3.65;65.11;99374.63;5077376;28;20028;-69
2024/01/23 07:42:51;;;;;;;4.85;2.17;;;;;;;4.14;63.81;99432.91;5062791;28;20023;-69
2024/01/23 07:45:17;;;;;;;4.25;1.60;;;;;;;4.30;63.55;99436.28;5053226;28;20172;-69
2024/01/23 07:47:42;;;;;;;5.22;2.17;;;;;;;4.45;62.26;99428.63;5061935;28;20680;-68
2024/01/23 07:50:12;;;;;;;4.50;1.92;;;;;;;4.68;61.48;99424.78;5063855;28;20028;-69
2024/01/23 07:52:37;;;;;;;6.00;2.40;;;;;;;4.55;63.44;99427.22;5054411;28;20525;-68
2024/01/23 07:55:03;;;;;;;4.18;1.63;;;;;;;4.71;64.27;99434.88;5052827;28;20122;-68
2024/01/23 07:57:33;;;;;;;4.03;1.23;;;;;;;4.97;59.19;99397.31;5069077;28;20039;-69
2024/01/23 08:00:01;;;;;;;3.65;1.38;;;;;;;5.97;54.31;99430.84;5066659;28;20028;-70
2024/01/23 08:02:26;;;;;;;5.18;1.67;;;;;;;5.97;55.78;99448.09;5085117;27;20049;-68
2024/01/23 08:04:52;;;;;;;4.85;2.33;;;;;;;5.04;61.90;99442.44;5064401;28;20039;-70
2024/01/23 08:07:20;;;;;;;5.25;2.08;;;;;;;5.03;61.18;99450.25;5055338;28;20760;-68
2024/01/23 08:09:48;;;;;;;5.93;2.45;;;;;;;5.18;62.86;99445.03;5050789;28;20077;-68
2024/01/23 08:12:14;;;;;;;5.28;2.10;;;;;;;5.05;62.63;99433.78;5060217;28;20043;-69
2024/01/23 08:14:42;;;;;;;6.18;2.70;;;;;;;5.09;63.13;99461.06;5051816;28;20026;-69
2024/01/23 08:17:09;;;;;;;5.20;2.40;;;;;;;4.96;66.54;99448.00;5053494;28;20028;-69
2024/01/23 08:19:37;;;;;;;5.97;2.78;;;;;;;4.89;66.25;99457.06;5070310;28;20024;-68
2024/01/23 08:22:03;;;;;;;6.13;2.80;;;;;;;4.72;69.19;99464.91;5066463;28;20566;-69
2024/01/23 08:24:30;;;;;;;5.60;2.65;;;;;;;4.60;68.94;99464.66;5059080;28;20853;-69
2024/01/23 08:26:58;;;;;;;6.65;2.75;;;;;;;4.62;69.48;99449.13;5051005;28;20023;-70
2024/01/23 08:29:26;;;;;;;5.93;2.83;;;;;;;4.65;70.47;99466.97;5069889;28;20043;-69
2024/01/23 08:31:52;;;;;;;6.28;2.58;;;;;;;4.71;69.92;99468.38;5051223;28;20439;-68
2024/01/23 08:34:20;;;;;;;5.50;2.60;;;;;;;4.23;70.33;99406.66;5062170;28;20019;-69
2024/01/23 08:36:48;;;;;;;5.00;2.70;;;;;;;4.57;71.38;99467.41;5054472;28;20031;-69
2024/01/23 08:39:17;;;;;;;6.22;2.80;;;;;;;4.58;72.00;99457.94;5069340;28;20086;-70
2024/01/23 08:41:43;;;;;;;5.30;2.38;;;;;;;4.96;70.56;99454.94;5049404;28;20060;-69
2024/01/23 08:44:10;;;;;;;4.40;1.52;;;;;;;5.17;67.82;99396.97;5055199;28;20078;-68
2024/01/23 08:46:38;;;;;;;3.70;1.30;;;;;;;5.87;62.12;99449.56;5060511;28;20351;-69
2024/01/23 08:49:04;;;;;;;3.50;1.00;;;;;;;5.99;60.88;99456.59;5051652;28;20111;-68
2024/01/23 08:51:31;;;;;;;4.22;1.40;;;;;;;6.20;62.46;99451.00;5050110;28;20335;-69
2024/01/23 08:54:02;;;;;;;3.50;1.10;;;;;;;6.83;54.90;99449.56;5065316;28;20048;-69
2024/01/23 08:56:27;;;;;;;2.08;0.70;;;;;;;7.44;52.00;99447.22;5074021;28;20354;-69
2024/01/23 08:58:55;;;;;;;3.05;0.90;;;;;;;7.38;52.39;99432.13;5072121;28;20474;-69
2024/01/23 09:01:25;;;;;;;3.20;0.90;;;;;;;7.27;52.03;99444.03;5068244;28;20027;-69
2024/01/23 09:03:50;;;;;;;2.70;0.80;;;;;;;7.90;49.23;99438.88;5073696;28;20452;-70
2024/01/23 09:06:18;;;;;;;3.20;0.90;;;;;;;7.96;49.30;99451.41;5065724;28;20032;-68
2024/01/23 09:08:44;;;;;;;3.42;1.20;;;;;;;7.94;49.90;99452.44;5071331;28;20035;-69
2024/01/23 09:11:12;;;;;;;3.47;1.00;;;;;;;7.84;48.81;99437.53;5056501;27;20027;-69
2024/01/23 09:13:38;;;;;;;4.90;1.30;;;;;;;8.33;47.60;99448.78;5055968;28;20023;-69
2024/01/23 09:16:04;;;;;;;3.78;1.38;;;;;;;7.99;49.96;99458.94;5070955;28;20028;-70
2024/01/23 09:18:32;;;;;;;5.18;1.30;;;;;;;7.59;47.99;99391.00;5068507;28;20767;-68
2024/01/23 09:21:02;;;;;;;4.03;1.45;;;;;;;8.32;47.18;99472.22;5064351;28;20051;-68
2024/01/23 09:23:28;;;;;;;3.13;0.98;;;;;;;8.36;47.85;99484.88;5052121;28;20058;-68
2024/01/23 09:25:57;;;;;;;3.45;1.15;;;;;;;7.65;49.06;99435.41;5071567;28;20028;-69
2024/01/23 09:28:25;;;;;;;4.27;1.30;;;;;;;7.24;51.50;99444.22;5058643;27;20062;-68
2024/01/23 09:30:50;;;;;;;3.55;1.20;;;;;;;7.35;53.19;99500.41;5062772;28;20522;-68
2024/01/23 09:33:16;;;;;;;6.18;1.40;;;;;;;7.12;54.44;99509.72;5066476;28;20062;-69
2024/01/23 09:35:43;;;;;;;6.20;1.75;;;;;;;7.15;54.41;99503.50;5067070;28;20054;-69
2024/01/23 09:38:09;;;;;;;6.43;1.85;;;;;;;6.81;54.84;99466.91;5072060;28;20044;-69
2024/01/23 09:40:36;;;;;;;4.80;1.65;;;;;;;6.97;55.56;99500.34;5070778;28;20528;-68
2024/01/23 09:43:04;;;;;;;5.18;1.60;;;;;;;6.85;56.07;99502.00;5068831;28;20028;-69
2024/01/23 09:45:30;;;;;;;5.25;1.63;;;;;;;6.91;55.47;99510.16;5052772;27;20036;-69
2024/01/23 09:47:57;;;;;;;4.53;1.60;;;;;;;6.76;56.03;99505.16;5068780;28;20081;-69
2024/01/23 09:50:27;;;;;;;6.03;1.80;;;;;;;6.69;56.77;99510.72;5052545;28;20376;-69
2024/01/23 09:52:54;;;;;;;7.93;1.98;;;;;;;6.48;57.46;99506.91;5067756;27;20047;-69
2024/01/23 09:55:20;;;;;;;7.82;2.40;;;;;;;6.42;57.28;99504.72;5074383;28;20054;-69
2024/01/23 09:57:48;;;;;;;14.38;3.10;;;;;;;6.40;57.29;99498.81;5070135;27;20041;-69
2024/01/23 10:00:14;;;;;;;7.30;2.40;;;;;;;6.34;57.38;99495.69;5074772;28;20029;-69
2024/01/23 10:02:40;;;;;;;10.80;2.50;;;;;;;6.29;57.26;99474.47;5057238;28;20421;-69
2024/01/23 10:05:12;;;;;;;11.02;2.80;;;;;;;6.49;56.95;99493.91;5056128;28;20136;-70
2024/01/23 10:07:39;;;;;;;7.80;2.30;;;;;;;6.49;57.04;99499.06;5069814;28;20038;-70
2024/01/23 10:10:13;;;;;;;11.25;3.83;;;;;;;6.40;56.71;99488.50;5057887;27;20462;-69
2024/01/23 10:12:50;;;;;;;7.47;2.10;;;;;;;6.51;55.85;99489.44;5057753;28;20056;-68
2024/01/23 10:15:22;;;;;;;10.32;3.25;;;;;;;6.67;54.96;99480.75;5056126;28;20110;-68
2024/01/23 10:17:48;;;;;;;6.75;2.92;;;;;;;6.94;52.53;99478.13;5042707;28;20056;-67
2024/01/23 10:20:17;;;;;;;7.50;2.85;;;;;;;7.03;53.01;99484.47;5047466;28;20131;-68
2024/01/23 10:22:45;;;;;;;6.75;2.50;;;;;;;7.15;52.80;99480.22;5058840;28;20028;-67
2024/01/23 10:25:14;;;;;;;12.87;4.43;;;;;;;7.31;51.97;99468.75;5068243;28;20028;-68
2024/01/23 10:27:39;;;;;;;9.70;2.53;;;;;;;7.60;50.47;99458.19;5063396;28;20114;-67
2024/01/23 10:30:06;;;;;;;3.35;1.20;;;;;;;8.45;45.05;99465.25;5053514;27;20402;-67
2024/01/23 10:32:31;;;;;;;5.30;0.93;;;;;;;9.82;39.78;99452.47;5051192;28;20030;-67
2024/01/23 10:34:57;;;;;;;4.53;0.70;;;;;;;10.06;39.49;99459.28;5064847;28;20032;-67
2024/01/23 12:43:34;;;;;;;12.57;6.57;;;;;;;10.34;45.73;99413.75;5026440;28;20411;-68
2024/01/23 12:46:00;;;;;;;10.45;7.10;;;;;;;10.51;45.03;99413.25;5022037;28;20125;-69
2024/01/23 12:48:44;;;;;;;11.45;6.85;;;;;;;10.40;45.15;99421.06;4998060;28;20037;-69
2024/01/23 12:51:16;;;;;;;11.43;7.03;;;;;;;10.43;45.21;99422.59;4997707;28;20132;-68
2024/01/23 12:53:46;;;;;;;11.13;6.63;;;;;;;10.40;45.10;99410.66;5004751;28;20547;-67
2024/01/23 12:56:12;;;;;;;11.85;7.07;;;;;;;10.41;45.46;99412.31;5021808;28;20989;-68
2024/01/23 12:58:38;;;;;;;11.65;6.63;;;;;;;10.45;45.07;99424.13;5016193;28;20033;-68
2024/01/23 13:01:03;;;;;;;14.10;7.28;;;;;;;10.50;45.33;99423.75;5003703;28;20028;-68
2024/01/23 13:03:31;;;;;;;12.93;7.97;;;;;;;10.31;45.63;99380.22;5015649;28;20695;-68
2024/01/23 13:05:58;;;;;;;12.85;8.60;;;;;;;10.48;45.66;99429.09;4998462;28;20774;-68
2024/01/23 13:08:26;;;;;;;13.80;9.27;;;;;;;10.51;45.98;99417.59;5005861;28;20206;-68
2024/01/23 13:10:55;;;;;;;12.18;8.60;;;;;;;10.47;46.22;99414.41;4999637;28;20059;-69
2024/01/23 13:13:21;;;;;;;14.05;9.80;;;;;;;10.52;46.10;99425.28;5015369;28;20033;-68
2024/01/23 13:15:49;;;;;;;14.65;10.13;;;;;;;10.53;45.57;99419.13;5013629;28;20029;-69
2024/01/23 13:18:14;;;;;;;15.95;9.70;;;;;;;10.57;46.03;99430.94;4999526;28;20048;-68
2024/01/23 13:20:40;;;;;;;19.13;9.20;;;;;;;10.42;45.84;99403.56;5008542;28;20029;-68
2024/01/23 13:23:05;;;;;;;15.07;9.70;;;;;;;10.60;45.80;99434.22;5014755;28;20060;-65
2024/01/23 13:25:33;;;;;;;15.00;9.13;;;;;;;10.38;45.12;99394.38;5013570;28;20025;-68
2024/01/23 13:28:00;;;;;;;15.20;9.68;;;;;;;10.64;45.47;99439.06;5019029;28;20424;-68
2024/01/23 13:30:31;;;;;;;17.35;10.38;;;;;;;10.67;45.56;99432.78;5016691;28;20037;-68
2024/01/23 13:32:57;;;;;;;13.20;9.30;;;;;;;10.67;45.15;99446.59;4998540;28;20021;-69
2024/01/23 13:35:22;;;;;;;19.08;10.18;;;;;;;10.70;45.19;99435.16;5013270;28;20043;-68
2024/01/23 13:37:50;;;;;;;14.63;10.25;;;;;;;10.69;45.10;99434.28;5006494;28;20116;-67
2024/01/23 13:40:16;;;;;;;15.30;10.18;;;;;;;10.71;44.92;99428.97;5017347;28;20821;-69
2024/01/23 13:42:44;;;;;;;14.57;10.50;;;;;;;10.67;45.24;99438.81;5023161;28;20357;-68